sensor_id;sensor_type;location;lat;lon;timestamp;temperature;humidity
8459;DHT22;4266;48.816;9.154;2022-07-23T00:01:16;24.60;76.40
8459;DHT22;4266;48.816;9.154;2022-07-23T00:03:42;24.60;76.30
8459;DHT22;4266;48.816;9.154;2022-07-23T00:06:08;24.50;76.60
8459;DHT22;4266;48.816;9.154;2022-07-23T00:08:34;24.50;76.60
8459;DHT22;4266;48.816;9.154;2022-07-23T00:11:00;24.40;76.40
8459;DHT22;4266;48.816;9.154;2022-07-23T00:13:26;24.40;76.30
8459;DHT22;4266;48.816;9.154;2022-07-23T00:15:51;24.40;76.60
8459;DHT22;4266;48.816;9.154;2022-07-23T00:18:17;24.30;76.70
8459;DHT22;4266;48.816;9.154;2022-07-23T00:20:42;24.30;76.90
8459;DHT22;4266;48.816;9.154;2022-07-23T00:23:08;24.30;77.20
8459;DHT22;4266;48.816;9.154;2022-07-23T00:25:34;24.10;77.80
8459;DHT22;4266;48.816;9.154;2022-07-23T00:28:00;24.00;77.50
8459;DHT22;4266;48.816;9.154;2022-07-23T00:30:26;24.00;77.60
8459;DHT22;4266;48.816;9.154;2022-07-23T00:32:52;24.00;77.80
8459;DHT22;4266;48.816;9.154;2022-07-23T00:35:18;23.90;78.00
8459;DHT22;4266;48.816;9.154;2022-07-23T00:37:42;23.90;78.10
8459;DHT22;4266;48.816;9.154;2022-07-23T00:40:09;23.90;78.30
8459;DHT22;4266;48.816;9.154;2022-07-23T00:42:35;23.80;78.30
8459;DHT22;4266;48.816;9.154;2022-07-23T00:45:02;23.70;78.90
8459;DHT22;4266;48.816;9.154;2022-07-23T00:47:28;23.60;79.50
8459;DHT22;4266;48.816;9.154;2022-07-23T00:49:54;23.60;79.40
8459;DHT22;4266;48.816;9.154;2022-07-23T00:52:19;23.50;80.50
8459;DHT22;4266;48.816;9.154;2022-07-23T00:54:45;23.40;81.20
8459;DHT22;4266;48.816;9.154;2022-07-23T00:57:10;23.40;80.70
8459;DHT22;4266;48.816;9.154;2022-07-23T00:59:38;23.30;81.00
8459;DHT22;4266;48.816;9.154;2022-07-23T01:02:02;23.30;80.20
8459;DHT22;4266;48.816;9.154;2022-07-23T01:04:27;23.20;80.60
8459;DHT22;4266;48.816;9.154;2022-07-23T01:06:53;23.20;79.90
8459;DHT22;4266;48.816;9.154;2022-07-23T01:09:19;23.30;79.80
8459;DHT22;4266;48.816;9.154;2022-07-23T01:11:44;23.30;79.80
8459;DHT22;4266;48.816;9.154;2022-07-23T01:14:13;23.10;80.60
8459;DHT22;4266;48.816;9.154;2022-07-23T01:16:37;23.10;80.60
8459;DHT22;4266;48.816;9.154;2022-07-23T01:19:03;23.00;80.90
8459;DHT22;4266;48.816;9.154;2022-07-23T01:21:28;23.00;81.10
8459;DHT22;4266;48.816;9.154;2022-07-23T01:23:54;22.90;81.40
8459;DHT22;4266;48.816;9.154;2022-07-23T01:26:19;22.80;81.60
8459;DHT22;4266;48.816;9.154;2022-07-23T01:28:45;22.90;81.50
8459;DHT22;4266;48.816;9.154;2022-07-23T01:31:11;22.90;81.10
8459;DHT22;4266;48.816;9.154;2022-07-23T01:33:36;22.90;81.30
8459;DHT22;4266;48.816;9.154;2022-07-23T01:36:02;22.90;81.00
8459;DHT22;4266;48.816;9.154;2022-07-23T01:38:28;23.00;81.10
8459;DHT22;4266;48.816;9.154;2022-07-23T01:40:54;23.00;81.10
8459;DHT22;4266;48.816;9.154;2022-07-23T01:43:19;22.90;81.40
8459;DHT22;4266;48.816;9.154;2022-07-23T01:45:45;22.90;81.70
8459;DHT22;4266;48.816;9.154;2022-07-23T01:48:11;22.90;81.90
8459;DHT22;4266;48.816;9.154;2022-07-23T01:50:38;22.80;81.80
8459;DHT22;4266;48.816;9.154;2022-07-23T01:53:03;22.80;81.80
8459;DHT22;4266;48.816;9.154;2022-07-23T01:55:29;22.80;82.00
8459;DHT22;4266;48.816;9.154;2022-07-23T01:57:55;22.50;82.60
8459;DHT22;4266;48.816;9.154;2022-07-23T02:00:21;22.50;82.60
8459;DHT22;4266;48.816;9.154;2022-07-23T02:02:46;22.50;83.20
8459;DHT22;4266;48.816;9.154;2022-07-23T02:05:13;22.40;83.10
8459;DHT22;4266;48.816;9.154;2022-07-23T02:07:39;22.30;83.00
8459;DHT22;4266;48.816;9.154;2022-07-23T02:10:05;22.40;83.00
8459;DHT22;4266;48.816;9.154;2022-07-23T02:12:31;22.40;83.30
8459;DHT22;4266;48.816;9.154;2022-07-23T02:14:57;22.20;83.80
8459;DHT22;4266;48.816;9.154;2022-07-23T02:17:23;22.20;83.80
8459;DHT22;4266;48.816;9.154;2022-07-23T02:19:49;22.10;83.50
8459;DHT22;4266;48.816;9.154;2022-07-23T02:22:15;22.10;83.50
8459;DHT22;4266;48.816;9.154;2022-07-23T02:24:41;22.10;83.40
8459;DHT22;4266;48.816;9.154;2022-07-23T02:27:06;22.00;83.90
8459;DHT22;4266;48.816;9.154;2022-07-23T02:29:32;22.00;84.10
8459;DHT22;4266;48.816;9.154;2022-07-23T02:31:58;21.90;84.10
8459;DHT22;4266;48.816;9.154;2022-07-23T02:34:23;22.00;84.20
8459;DHT22;4266;48.816;9.154;2022-07-23T02:36:49;22.00;84.20
8459;DHT22;4266;48.816;9.154;2022-07-23T02:39:14;22.00;84.30
8459;DHT22;4266;48.816;9.154;2022-07-23T02:41:40;21.90;84.60
8459;DHT22;4266;48.816;9.154;2022-07-23T02:44:06;21.80;84.90
8459;DHT22;4266;48.816;9.154;2022-07-23T02:46:31;21.80;85.40
8459;DHT22;4266;48.816;9.154;2022-07-23T02:48:57;21.70;85.60
8459;DHT22;4266;48.816;9.154;2022-07-23T02:51:23;21.60;85.60
8459;DHT22;4266;48.816;9.154;2022-07-23T02:53:48;21.70;85.60
8459;DHT22;4266;48.816;9.154;2022-07-23T02:56:14;21.70;85.70
8459;DHT22;4266;48.816;9.154;2022-07-23T02:58:39;21.60;86.20
8459;DHT22;4266;48.816;9.154;2022-07-23T03:01:05;21.60;86.50
8459;DHT22;4266;48.816;9.154;2022-07-23T03:03:31;21.50;86.60
8459;DHT22;4266;48.816;9.154;2022-07-23T03:05:56;21.60;86.50
8459;DHT22;4266;48.816;9.154;2022-07-23T03:08:22;21.60;86.30
8459;DHT22;4266;48.816;9.154;2022-07-23T03:10:48;21.50;87.10
8459;DHT22;4266;48.816;9.154;2022-07-23T03:13:14;21.50;86.80
8459;DHT22;4266;48.816;9.154;2022-07-23T03:15:39;21.50;86.80
8459;DHT22;4266;48.816;9.154;2022-07-23T03:18:06;21.50;87.30
8459;DHT22;4266;48.816;9.154;2022-07-23T03:20:31;21.50;87.30
8459;DHT22;4266;48.816;9.154;2022-07-23T03:22:57;21.40;87.80
8459;DHT22;4266;48.816;9.154;2022-07-23T03:25:23;21.50;88.30
8459;DHT22;4266;48.816;9.154;2022-07-23T03:27:49;21.40;88.90
8459;DHT22;4266;48.816;9.154;2022-07-23T03:30:15;21.40;88.80
8459;DHT22;4266;48.816;9.154;2022-07-23T03:32:40;21.30;89.20
8459;DHT22;4266;48.816;9.154;2022-07-23T03:35:07;21.20;89.60
8459;DHT22;4266;48.816;9.154;2022-07-23T03:37:33;21.20;90.00
8459;DHT22;4266;48.816;9.154;2022-07-23T03:39:58;21.20;90.10
8459;DHT22;4266;48.816;9.154;2022-07-23T03:42:24;21.20;90.20
8459;DHT22;4266;48.816;9.154;2022-07-23T03:44:50;21.10;90.20
8459;DHT22;4266;48.816;9.154;2022-07-23T03:47:15;21.10;90.30
8459;DHT22;4266;48.816;9.154;2022-07-23T03:49:41;21.10;90.30
8459;DHT22;4266;48.816;9.154;2022-07-23T03:52:06;21.10;90.20
8459;DHT22;4266;48.816;9.154;2022-07-23T03:54:33;21.10;90.30
8459;DHT22;4266;48.816;9.154;2022-07-23T03:56:58;21.10;90.30
8459;DHT22;4266;48.816;9.154;2022-07-23T03:59:24;21.00;90.30
8459;DHT22;4266;48.816;9.154;2022-07-23T04:01:50;20.90;90.60
8459;DHT22;4266;48.816;9.154;2022-07-23T04:04:15;20.90;90.60
8459;DHT22;4266;48.816;9.154;2022-07-23T04:06:42;21.00;90.80
8459;DHT22;4266;48.816;9.154;2022-07-23T04:09:07;21.00;90.80
8459;DHT22;4266;48.816;9.154;2022-07-23T04:11:33;21.10;90.70
8459;DHT22;4266;48.816;9.154;2022-07-23T04:13:59;21.10;90.60
8459;DHT22;4266;48.816;9.154;2022-07-23T04:16:25;21.30;90.60
8459;DHT22;4266;48.816;9.154;2022-07-23T04:18:51;21.30;90.60
8459;DHT22;4266;48.816;9.154;2022-07-23T04:21:16;21.40;90.30
8459;DHT22;4266;48.816;9.154;2022-07-23T04:23:42;21.50;90.30
8459;DHT22;4266;48.816;9.154;2022-07-23T04:26:08;21.50;90.10
8459;DHT22;4266;48.816;9.154;2022-07-23T04:28:34;21.50;90.10
8459;DHT22;4266;48.816;9.154;2022-07-23T04:30:59;21.50;90.00
8459;DHT22;4266;48.816;9.154;2022-07-23T04:33:25;21.60;90.00
8459;DHT22;4266;48.816;9.154;2022-07-23T04:35:51;21.60;90.00
8459;DHT22;4266;48.816;9.154;2022-07-23T04:38:16;21.60;90.00
8459;DHT22;4266;48.816;9.154;2022-07-23T04:40:43;21.70;90.00
8459;DHT22;4266;48.816;9.154;2022-07-23T04:43:09;21.80;90.00
8459;DHT22;4266;48.816;9.154;2022-07-23T04:45:35;21.80;90.00
8459;DHT22;4266;48.816;9.154;2022-07-23T04:48:00;21.80;90.00
8459;DHT22;4266;48.816;9.154;2022-07-23T04:50:26;21.80;89.90
8459;DHT22;4266;48.816;9.154;2022-07-23T04:52:51;21.90;89.90
8459;DHT22;4266;48.816;9.154;2022-07-23T04:55:18;22.00;90.00
8459;DHT22;4266;48.816;9.154;2022-07-23T04:57:44;22.10;90.20
8459;DHT22;4266;48.816;9.154;2022-07-23T05:00:11;22.10;90.20
8459;DHT22;4266;48.816;9.154;2022-07-23T05:02:36;22.10;90.00
8459;DHT22;4266;48.816;9.154;2022-07-23T05:05:04;22.20;90.00
8459;DHT22;4266;48.816;9.154;2022-07-23T05:07:30;22.20;90.00
8459;DHT22;4266;48.816;9.154;2022-07-23T05:09:55;22.30;89.90
8459;DHT22;4266;48.816;9.154;2022-07-23T05:12:21;22.40;90.00
8459;DHT22;4266;48.816;9.154;2022-07-23T05:14:47;22.50;90.00
8459;DHT22;4266;48.816;9.154;2022-07-23T05:17:12;22.40;90.00
8459;DHT22;4266;48.816;9.154;2022-07-23T05:19:38;22.40;89.80
8459;DHT22;4266;48.816;9.154;2022-07-23T05:22:03;22.60;89.70
8459;DHT22;4266;48.816;9.154;2022-07-23T05:24:29;22.80;90.20
8459;DHT22;4266;48.816;9.154;2022-07-23T05:26:55;23.10;89.70
8459;DHT22;4266;48.816;9.154;2022-07-23T05:29:20;23.20;89.20
8459;DHT22;4266;48.816;9.154;2022-07-23T05:31:46;23.40;89.00
8459;DHT22;4266;48.816;9.154;2022-07-23T05:34:11;23.80;89.30
8459;DHT22;4266;48.816;9.154;2022-07-23T05:36:37;23.90;88.50
8459;DHT22;4266;48.816;9.154;2022-07-23T05:39:03;23.90;86.50
8459;DHT22;4266;48.816;9.154;2022-07-23T05:41:29;23.70;88.90
8459;DHT22;4266;48.816;9.154;2022-07-23T05:43:55;23.70;86.90
8459;DHT22;4266;48.816;9.154;2022-07-23T05:46:21;23.60;86.80
8459;DHT22;4266;48.816;9.154;2022-07-23T05:48:47;23.80;86.20
8459;DHT22;4266;48.816;9.154;2022-07-23T05:51:12;23.80;86.40
8459;DHT22;4266;48.816;9.154;2022-07-23T05:53:38;23.90;86.20
8459;DHT22;4266;48.816;9.154;2022-07-23T05:56:04;24.00;86.00
8459;DHT22;4266;48.816;9.154;2022-07-23T05:58:29;24.10;85.50
8459;DHT22;4266;48.816;9.154;2022-07-23T06:00:55;24.30;86.20
8459;DHT22;4266;48.816;9.154;2022-07-23T06:03:21;24.30;86.80
8459;DHT22;4266;48.816;9.154;2022-07-23T06:05:46;24.20;87.30
8459;DHT22;4266;48.816;9.154;2022-07-23T06:08:12;24.20;87.60
8459;DHT22;4266;48.816;9.154;2022-07-23T06:10:38;24.10;87.00
8459;DHT22;4266;48.816;9.154;2022-07-23T06:13:03;24.20;86.60
8459;DHT22;4266;48.816;9.154;2022-07-23T06:15:30;24.40;87.50
8459;DHT22;4266;48.816;9.154;2022-07-23T06:17:56;24.50;87.20
8459;DHT22;4266;48.816;9.154;2022-07-23T06:20:21;24.50;87.20
8459;DHT22;4266;48.816;9.154;2022-07-23T06:22:47;24.90;86.80
8459;DHT22;4266;48.816;9.154;2022-07-23T06:25:13;25.80;85.00
8459;DHT22;4266;48.816;9.154;2022-07-23T06:27:39;25.80;84.90
8459;DHT22;4266;48.816;9.154;2022-07-23T06:30:07;26.30;83.60
8459;DHT22;4266;48.816;9.154;2022-07-23T06:32:33;26.30;83.60
8459;DHT22;4266;48.816;9.154;2022-07-23T06:34:59;26.10;82.10
8459;DHT22;4266;48.816;9.154;2022-07-23T06:37:25;26.10;82.00
8459;DHT22;4266;48.816;9.154;2022-07-23T06:39:50;26.10;82.70
8459;DHT22;4266;48.816;9.154;2022-07-23T06:42:16;26.00;81.50
8459;DHT22;4266;48.816;9.154;2022-07-23T06:44:42;26.10;81.90
8459;DHT22;4266;48.816;9.154;2022-07-23T06:47:08;26.30;81.30
8459;DHT22;4266;48.816;9.154;2022-07-23T06:49:34;26.30;81.30
8459;DHT22;4266;48.816;9.154;2022-07-23T06:52:00;27.10;79.90
8459;DHT22;4266;48.816;9.154;2022-07-23T06:54:26;27.10;79.90
8459;DHT22;4266;48.816;9.154;2022-07-23T06:56:52;26.40;79.60
8459;DHT22;4266;48.816;9.154;2022-07-23T06:59:18;25.90;80.30
8459;DHT22;4266;48.816;9.154;2022-07-23T07:01:44;25.90;80.30
8459;DHT22;4266;48.816;9.154;2022-07-23T07:04:10;25.60;80.90
8459;DHT22;4266;48.816;9.154;2022-07-23T07:06:35;25.30;80.90
8459;DHT22;4266;48.816;9.154;2022-07-23T07:09:01;25.10;81.80
8459;DHT22;4266;48.816;9.154;2022-07-23T07:11:26;24.90;81.60
8459;DHT22;4266;48.816;9.154;2022-07-23T07:13:52;24.60;81.40
8459;DHT22;4266;48.816;9.154;2022-07-23T07:16:18;24.70;82.20
8459;DHT22;4266;48.816;9.154;2022-07-23T07:18:43;24.60;82.40
8459;DHT22;4266;48.816;9.154;2022-07-23T07:21:10;24.30;82.60
8459;DHT22;4266;48.816;9.154;2022-07-23T07:23:35;24.30;82.60
8459;DHT22;4266;48.816;9.154;2022-07-23T07:26:01;23.90;83.50
8459;DHT22;4266;48.816;9.154;2022-07-23T07:28:26;23.90;84.50
8459;DHT22;4266;48.816;9.154;2022-07-23T07:30:52;23.70;85.90
8459;DHT22;4266;48.816;9.154;2022-07-23T07:33:18;23.60;87.70
8459;DHT22;4266;48.816;9.154;2022-07-23T07:35:43;23.20;89.40
8459;DHT22;4266;48.816;9.154;2022-07-23T07:38:09;22.90;90.30
8459;DHT22;4266;48.816;9.154;2022-07-23T07:40:35;22.70;91.40
8459;DHT22;4266;48.816;9.154;2022-07-23T07:43:00;22.80;92.30
8459;DHT22;4266;48.816;9.154;2022-07-23T07:45:26;23.90;92.30
8459;DHT22;4266;48.816;9.154;2022-07-23T07:47:52;24.00;90.30
8459;DHT22;4266;48.816;9.154;2022-07-23T07:50:19;24.00;90.30
8459;DHT22;4266;48.816;9.154;2022-07-23T07:52:44;24.00;91.00
8459;DHT22;4266;48.816;9.154;2022-07-23T07:55:10;24.00;90.60
8459;DHT22;4266;48.816;9.154;2022-07-23T07:57:36;24.30;90.30
8459;DHT22;4266;48.816;9.154;2022-07-23T08:00:03;24.30;90.30
8459;DHT22;4266;48.816;9.154;2022-07-23T08:02:28;24.80;90.70
8459;DHT22;4266;48.816;9.154;2022-07-23T08:04:54;24.80;90.70
8459;DHT22;4266;48.816;9.154;2022-07-23T08:07:21;24.80;90.60
8459;DHT22;4266;48.816;9.154;2022-07-23T08:09:47;25.40;90.50
8459;DHT22;4266;48.816;9.154;2022-07-23T08:12:13;25.40;90.30
8459;DHT22;4266;48.816;9.154;2022-07-23T08:14:38;26.30;88.40
8459;DHT22;4266;48.816;9.154;2022-07-23T08:17:04;25.40;88.70
8459;DHT22;4266;48.816;9.154;2022-07-23T08:19:29;25.50;87.00
8459;DHT22;4266;48.816;9.154;2022-07-23T08:21:55;24.80;87.10
8459;DHT22;4266;48.816;9.154;2022-07-23T08:24:21;24.40;87.30
8459;DHT22;4266;48.816;9.154;2022-07-23T08:26:46;24.20;88.30
8459;DHT22;4266;48.816;9.154;2022-07-23T08:29:12;24.30;88.80
8459;DHT22;4266;48.816;9.154;2022-07-23T08:31:38;23.80;88.80
8459;DHT22;4266;48.816;9.154;2022-07-23T08:36:44;24.30;88.40
8459;DHT22;4266;48.816;9.154;2022-07-23T08:39:09;25.10;86.50
8459;DHT22;4266;48.816;9.154;2022-07-23T08:41:36;27.10;83.80
8459;DHT22;4266;48.816;9.154;2022-07-23T08:44:02;28.10;81.50
8459;DHT22;4266;48.816;9.154;2022-07-23T08:46:28;28.10;81.50
8459;DHT22;4266;48.816;9.154;2022-07-23T08:48:54;29.20;80.40
8459;DHT22;4266;48.816;9.154;2022-07-23T08:51:20;28.60;76.80
8459;DHT22;4266;48.816;9.154;2022-07-23T08:53:46;28.10;76.30
8459;DHT22;4266;48.816;9.154;2022-07-23T08:56:12;28.10;76.30
8459;DHT22;4266;48.816;9.154;2022-07-23T08:58:38;27.70;78.40
8459;DHT22;4266;48.816;9.154;2022-07-23T09:01:04;28.30;77.10
8459;DHT22;4266;48.816;9.154;2022-07-23T09:03:32;28.80;79.00
8459;DHT22;4266;48.816;9.154;2022-07-23T09:05:57;28.70;76.10
8459;DHT22;4266;48.816;9.154;2022-07-23T09:08:24;28.60;76.00
8459;DHT22;4266;48.816;9.154;2022-07-23T09:10:54;29.40;76.30
8459;DHT22;4266;48.816;9.154;2022-07-23T09:13:32;28.70;74.50
8459;DHT22;4266;48.816;9.154;2022-07-23T09:16:03;28.80;74.10
8459;DHT22;4266;48.816;9.154;2022-07-23T09:18:28;28.70;73.90
8459;DHT22;4266;48.816;9.154;2022-07-23T09:21:04;28.80;72.70
8459;DHT22;4266;48.816;9.154;2022-07-23T09:23:19;28.60;71.90
8459;DHT22;4266;48.816;9.154;2022-07-23T09:25:44;28.20;70.00
8459;DHT22;4266;48.816;9.154;2022-07-23T09:28:10;29.00;70.80
8459;DHT22;4266;48.816;9.154;2022-07-23T09:30:36;28.90;70.70
8459;DHT22;4266;48.816;9.154;2022-07-23T09:33:09;28.40;71.10
8459;DHT22;4266;48.816;9.154;2022-07-23T09:35:50;28.50;72.80
8459;DHT22;4266;48.816;9.154;2022-07-23T09:38:15;28.30;70.00
8459;DHT22;4266;48.816;9.154;2022-07-23T09:40:44;28.30;70.80
8459;DHT22;4266;48.816;9.154;2022-07-23T09:43:09;28.90;71.30
8459;DHT22;4266;48.816;9.154;2022-07-23T09:45:35;29.20;72.30
8459;DHT22;4266;48.816;9.154;2022-07-23T09:48:10;29.40;73.30
8459;DHT22;4266;48.816;9.154;2022-07-23T09:50:34;29.50;73.20
8459;DHT22;4266;48.816;9.154;2022-07-23T09:53:00;29.60;72.10
8459;DHT22;4266;48.816;9.154;2022-07-23T09:55:30;30.20;73.00
8459;DHT22;4266;48.816;9.154;2022-07-23T09:57:51;30.30;69.80
8459;DHT22;4266;48.816;9.154;2022-07-23T10:00:17;30.60;69.30
8459;DHT22;4266;48.816;9.154;2022-07-23T10:02:43;30.80;69.80
8459;DHT22;4266;48.816;9.154;2022-07-23T10:05:08;31.00;68.60
8459;DHT22;4266;48.816;9.154;2022-07-23T10:07:36;31.30;69.20
8459;DHT22;4266;48.816;9.154;2022-07-23T10:10:00;30.50;66.70
8459;DHT22;4266;48.816;9.154;2022-07-23T10:12:26;30.70;68.30
8459;DHT22;4266;48.816;9.154;2022-07-23T10:14:56;30.80;67.90
8459;DHT22;4266;48.816;9.154;2022-07-23T10:17:21;31.00;67.80
8459;DHT22;4266;48.816;9.154;2022-07-23T10:19:46;31.00;64.80
8459;DHT22;4266;48.816;9.154;2022-07-23T10:22:14;30.80;64.60
8459;DHT22;4266;48.816;9.154;2022-07-23T10:24:43;31.00;66.20
8459;DHT22;4266;48.816;9.154;2022-07-23T10:27:21;31.80;65.20
8459;DHT22;4266;48.816;9.154;2022-07-23T10:29:47;31.30;64.80
8459;DHT22;4266;48.816;9.154;2022-07-23T10:35:07;31.50;64.30
8459;DHT22;4266;48.816;9.154;2022-07-23T10:37:36;31.70;65.20
8459;DHT22;4266;48.816;9.154;2022-07-23T10:40:19;31.70;63.40
8459;DHT22;4266;48.816;9.154;2022-07-23T10:42:44;31.90;64.90
8459;DHT22;4266;48.816;9.154;2022-07-23T10:45:24;31.90;63.50
8459;DHT22;4266;48.816;9.154;2022-07-23T10:47:48;31.90;63.50
8459;DHT22;4266;48.816;9.154;2022-07-23T10:50:22;31.20;62.40
8459;DHT22;4266;48.816;9.154;2022-07-23T10:58:06;31.80;64.60
8459;DHT22;4266;48.816;9.154;2022-07-23T11:00:32;32.20;63.10
8459;DHT22;4266;48.816;9.154;2022-07-23T11:02:59;31.40;62.10
8459;DHT22;4266;48.816;9.154;2022-07-23T11:05:38;31.40;62.10
8459;DHT22;4266;48.816;9.154;2022-07-23T11:08:12;31.40;62.40
8459;DHT22;4266;48.816;9.154;2022-07-23T11:10:44;31.80;63.10
8459;DHT22;4266;48.816;9.154;2022-07-23T11:16:06;31.60;61.80
8459;DHT22;4266;48.816;9.154;2022-07-23T11:18:55;31.40;63.30
8459;DHT22;4266;48.816;9.154;2022-07-23T11:21:42;31.10;62.70
8459;DHT22;4266;48.816;9.154;2022-07-23T11:24:13;30.60;62.40
8459;DHT22;4266;48.816;9.154;2022-07-23T11:26:47;30.40;64.00
8459;DHT22;4266;48.816;9.154;2022-07-23T11:32:07;30.20;62.80
8459;DHT22;4266;48.816;9.154;2022-07-23T11:34:41;30.10;62.70
8459;DHT22;4266;48.816;9.154;2022-07-23T11:37:07;29.80;62.80
8459;DHT22;4266;48.816;9.154;2022-07-23T11:39:32;29.50;64.00
8459;DHT22;4266;48.816;9.154;2022-07-23T11:41:58;29.40;64.40
8459;DHT22;4266;48.816;9.154;2022-07-23T11:44:26;29.60;64.80
8459;DHT22;4266;48.816;9.154;2022-07-23T11:46:58;29.60;62.80
8459;DHT22;4266;48.816;9.154;2022-07-23T11:49:23;30.00;64.90
8459;DHT22;4266;48.816;9.154;2022-07-23T11:52:13;30.60;65.70
8459;DHT22;4266;48.816;9.154;2022-07-23T11:54:49;30.80;64.00
8459;DHT22;4266;48.816;9.154;2022-07-23T11:57:14;30.60;65.10
8459;DHT22;4266;48.816;9.154;2022-07-23T11:59:39;30.60;63.70
8459;DHT22;4266;48.816;9.154;2022-07-23T12:02:06;30.90;65.40
8459;DHT22;4266;48.816;9.154;2022-07-23T12:04:37;31.10;65.10
8459;DHT22;4266;48.816;9.154;2022-07-23T12:07:02;31.10;64.40
8459;DHT22;4266;48.816;9.154;2022-07-23T12:09:28;31.30;64.20
8459;DHT22;4266;48.816;9.154;2022-07-23T12:11:58;31.10;63.00
8459;DHT22;4266;48.816;9.154;2022-07-23T12:14:23;31.30;63.10
8459;DHT22;4266;48.816;9.154;2022-07-23T12:17:06;31.40;64.20
8459;DHT22;4266;48.816;9.154;2022-07-23T12:19:15;31.10;63.30
8459;DHT22;4266;48.816;9.154;2022-07-23T12:21:41;31.20;61.90
8459;DHT22;4266;48.816;9.154;2022-07-23T12:24:07;31.20;61.90
8459;DHT22;4266;48.816;9.154;2022-07-23T12:26:33;31.20;63.30
8459;DHT22;4266;48.816;9.154;2022-07-23T12:28:58;30.90;61.20
8459;DHT22;4266;48.816;9.154;2022-07-23T12:31:26;30.90;64.10
8459;DHT22;4266;48.816;9.154;2022-07-23T12:33:51;31.00;62.30
8459;DHT22;4266;48.816;9.154;2022-07-23T12:36:16;31.10;62.90
8459;DHT22;4266;48.816;9.154;2022-07-23T12:38:46;31.00;62.70
8459;DHT22;4266;48.816;9.154;2022-07-23T12:41:09;30.50;61.30
8459;DHT22;4266;48.816;9.154;2022-07-23T12:43:36;30.80;63.90
8459;DHT22;4266;48.816;9.154;2022-07-23T12:46:08;30.80;62.90
8459;DHT22;4266;48.816;9.154;2022-07-23T12:48:34;30.50;63.10
8459;DHT22;4266;48.816;9.154;2022-07-23T12:51:01;30.50;63.10
8459;DHT22;4266;48.816;9.154;2022-07-23T12:53:44;30.60;64.00
8459;DHT22;4266;48.816;9.154;2022-07-23T12:56:12;30.40;64.00
8459;DHT22;4266;48.816;9.154;2022-07-23T12:58:48;30.60;63.70
8459;DHT22;4266;48.816;9.154;2022-07-23T13:01:29;30.60;63.70
8459;DHT22;4266;48.816;9.154;2022-07-23T13:03:57;30.50;62.20
8459;DHT22;4266;48.816;9.154;2022-07-23T13:06:22;30.00;62.90
8459;DHT22;4266;48.816;9.154;2022-07-23T13:08:48;30.30;62.30
8459;DHT22;4266;48.816;9.154;2022-07-23T13:11:15;29.80;61.60
8459;DHT22;4266;48.816;9.154;2022-07-23T13:13:40;29.80;61.60
8459;DHT22;4266;48.816;9.154;2022-07-23T13:16:11;29.70;61.40
8459;DHT22;4266;48.816;9.154;2022-07-23T13:18:36;29.70;61.30
8459;DHT22;4266;48.816;9.154;2022-07-23T13:21:03;29.60;61.10
8459;DHT22;4266;48.816;9.154;2022-07-23T13:23:28;29.60;61.00
8459;DHT22;4266;48.816;9.154;2022-07-23T13:25:54;29.70;61.60
8459;DHT22;4266;48.816;9.154;2022-07-23T13:28:20;29.80;62.20
8459;DHT22;4266;48.816;9.154;2022-07-23T13:30:46;30.10;63.20
8459;DHT22;4266;48.816;9.154;2022-07-23T13:33:11;30.40;62.40
8459;DHT22;4266;48.816;9.154;2022-07-23T13:35:37;30.30;63.20
8459;DHT22;4266;48.816;9.154;2022-07-23T13:38:04;30.40;63.70
8459;DHT22;4266;48.816;9.154;2022-07-23T13:40:29;30.50;62.40
8459;DHT22;4266;48.816;9.154;2022-07-23T13:42:55;30.60;63.60
8459;DHT22;4266;48.816;9.154;2022-07-23T13:45:21;30.40;61.90
8459;DHT22;4266;48.816;9.154;2022-07-23T13:47:46;29.80;61.00
8459;DHT22;4266;48.816;9.154;2022-07-23T13:50:12;30.00;61.90
8459;DHT22;4266;48.816;9.154;2022-07-23T13:52:37;30.30;64.20
8459;DHT22;4266;48.816;9.154;2022-07-23T13:55:05;30.40;63.40
8459;DHT22;4266;48.816;9.154;2022-07-23T13:57:31;30.10;62.30
8459;DHT22;4266;48.816;9.154;2022-07-23T13:59:56;29.80;62.70
8459;DHT22;4266;48.816;9.154;2022-07-23T14:02:21;30.10;63.10
8459;DHT22;4266;48.816;9.154;2022-07-23T14:04:47;30.20;62.00
8459;DHT22;4266;48.816;9.154;2022-07-23T14:07:13;30.20;61.80
8459;DHT22;4266;48.816;9.154;2022-07-23T14:09:38;30.40;61.30
8459;DHT22;4266;48.816;9.154;2022-07-23T14:12:05;30.60;61.50
8459;DHT22;4266;48.816;9.154;2022-07-23T14:14:31;30.30;59.70
8459;DHT22;4266;48.816;9.154;2022-07-23T14:16:56;30.20;60.00
8459;DHT22;4266;48.816;9.154;2022-07-23T14:19:22;30.30;60.30
8459;DHT22;4266;48.816;9.154;2022-07-23T14:21:48;30.60;61.20
8459;DHT22;4266;48.816;9.154;2022-07-23T14:24:14;30.40;61.10
8459;DHT22;4266;48.816;9.154;2022-07-23T14:26:39;30.40;61.60
8459;DHT22;4266;48.816;9.154;2022-07-23T14:29:05;30.60;60.30
8459;DHT22;4266;48.816;9.154;2022-07-23T14:31:30;30.50;59.80
8459;DHT22;4266;48.816;9.154;2022-07-23T14:33:56;30.30;58.70
8459;DHT22;4266;48.816;9.154;2022-07-23T14:36:22;30.70;59.60
8459;DHT22;4266;48.816;9.154;2022-07-23T14:38:48;31.10;59.40
8459;DHT22;4266;48.816;9.154;2022-07-23T14:41:14;31.10;59.40
8459;DHT22;4266;48.816;9.154;2022-07-23T14:43:39;31.30;59.60
8459;DHT22;4266;48.816;9.154;2022-07-23T14:46:05;31.40;58.90
8459;DHT22;4266;48.816;9.154;2022-07-23T14:48:31;31.30;58.30
8459;DHT22;4266;48.816;9.154;2022-07-23T14:50:56;31.50;58.30
8459;DHT22;4266;48.816;9.154;2022-07-23T14:53:22;31.70;58.50
8459;DHT22;4266;48.816;9.154;2022-07-23T14:55:48;31.10;58.10
8459;DHT22;4266;48.816;9.154;2022-07-23T14:58:15;31.50;58.20
8459;DHT22;4266;48.816;9.154;2022-07-23T15:00:40;31.50;58.20
8459;DHT22;4266;48.816;9.154;2022-07-23T15:03:07;31.30;58.40
8459;DHT22;4266;48.816;9.154;2022-07-23T15:05:33;31.40;58.60
8459;DHT22;4266;48.816;9.154;2022-07-23T15:07:59;31.40;58.60
8459;DHT22;4266;48.816;9.154;2022-07-23T15:10:24;31.10;58.10
8459;DHT22;4266;48.816;9.154;2022-07-23T15:12:50;30.90;58.80
8459;DHT22;4266;48.816;9.154;2022-07-23T15:15:16;30.80;58.10
8459;DHT22;4266;48.816;9.154;2022-07-23T15:17:42;30.70;58.60
8459;DHT22;4266;48.816;9.154;2022-07-23T15:20:08;30.70;58.60
8459;DHT22;4266;48.816;9.154;2022-07-23T15:22:34;30.40;58.30
8459;DHT22;4266;48.816;9.154;2022-07-23T15:25:00;30.20;58.70
8459;DHT22;4266;48.816;9.154;2022-07-23T15:27:26;30.30;58.70
8459;DHT22;4266;48.816;9.154;2022-07-23T15:29:52;30.30;59.20
8459;DHT22;4266;48.816;9.154;2022-07-23T15:32:17;30.30;59.20
8459;DHT22;4266;48.816;9.154;2022-07-23T15:34:43;30.40;59.00
8459;DHT22;4266;48.816;9.154;2022-07-23T15:37:09;30.40;58.20
8459;DHT22;4266;48.816;9.154;2022-07-23T15:39:35;30.40;58.40
8459;DHT22;4266;48.816;9.154;2022-07-23T15:42:01;30.30;58.40
8459;DHT22;4266;48.816;9.154;2022-07-23T15:44:27;30.40;58.60
8459;DHT22;4266;48.816;9.154;2022-07-23T15:46:53;30.40;58.60
8459;DHT22;4266;48.816;9.154;2022-07-23T15:49:18;30.30;58.00
8459;DHT22;4266;48.816;9.154;2022-07-23T15:51:44;30.30;58.40
8459;DHT22;4266;48.816;9.154;2022-07-23T15:54:10;30.20;58.10
8459;DHT22;4266;48.816;9.154;2022-07-23T15:56:35;30.10;58.40
8459;DHT22;4266;48.816;9.154;2022-07-23T15:59:01;30.30;58.30
8459;DHT22;4266;48.816;9.154;2022-07-23T16:01:27;30.10;58.60
8459;DHT22;4266;48.816;9.154;2022-07-23T16:03:54;29.90;58.60
8459;DHT22;4266;48.816;9.154;2022-07-23T16:06:20;29.80;58.90
8459;DHT22;4266;48.816;9.154;2022-07-23T16:08:45;29.70;58.90
8459;DHT22;4266;48.816;9.154;2022-07-23T16:11:11;29.70;58.80
8459;DHT22;4266;48.816;9.154;2022-07-23T16:13:36;29.50;58.90